NOZ105 ENEV-ENBR
Flight info
| Callsign | NOZ105 |
|---|---|
| Flight time | 1h 34m |
| Altitude | 36000 |
| Route | GEPTU DCT LUNUR |
| Aircraft | B738/M-SDE2E3FGHIRWXY/LB1 |
Departure
| Time | 2026-04-26 13:55 |
|---|---|
| Airport | Harstad/Narvik Airport (ENEV) |
Arrival
| Time | 2026-04-26 15:29 |
|---|---|
| Airport | Bergen Airport, Flesland (ENBR) |
| Time | Latitude | Longitude | Altitude | Speed | Heading |
|---|---|---|---|---|---|
| 2026-04-26 13:55 | 68.54923 | 16.67235 | 2958 ft | 218 kts | 356° |
| 2026-04-26 13:55 | 68.55973 | 16.67100 | 3338 ft | 226 kts | 356° |
| 2026-04-26 13:55 | 68.59690 | 16.66603 | 5290 ft | 234 kts | 355° |
| 2026-04-26 13:56 | 68.61305 | 16.65993 | 6069 ft | 236 kts | 338° |
| 2026-04-26 13:56 | 68.62650 | 16.63447 | 6840 ft | 240 kts | 311° |
| 2026-04-26 13:56 | 68.63410 | 16.59378 | 7630 ft | 246 kts | 284° |
| 2026-04-26 13:56 | 68.63404 | 16.54659 | 8412 ft | 253 kts | 260° |
| 2026-04-26 13:57 | 68.62866 | 16.50022 | 9235 ft | 257 kts | 253° |
| 2026-04-26 13:57 | 68.62220 | 16.45414 | 10018 ft | 261 kts | 252° |
| 2026-04-26 13:57 | 68.61563 | 16.40752 | 10770 ft | 263 kts | 252° |
| 2026-04-26 13:57 | 68.60916 | 16.36065 | 11533 ft | 264 kts | 252° |
| 2026-04-26 13:58 | 68.60271 | 16.31338 | 12253 ft | 267 kts | 252° |
| 2026-04-26 13:58 | 68.59623 | 16.26575 | 13000 ft | 268 kts | 252° |
| 2026-04-26 13:58 | 68.58829 | 16.21917 | 13712 ft | 275 kts | 234° |
| 2026-04-26 13:58 | 68.57331 | 16.18478 | 14106 ft | 295 kts | 210° |
| 2026-04-26 13:59 | 68.55371 | 16.16217 | 14285 ft | 317 kts | 204° |
| 2026-04-26 13:59 | 68.53244 | 16.14040 | 14468 ft | 336 kts | 203° |
| 2026-04-26 13:59 | 68.51012 | 16.11805 | 14847 ft | 346 kts | 202° |
| 2026-04-26 14:00 | 68.44114 | 16.04847 | 16614 ft | 358 kts | 203° |
| 2026-04-26 14:00 | 68.41768 | 16.02456 | 17151 ft | 363 kts | 203° |
| 2026-04-26 14:00 | 68.40192 | 16.00844 | 17407 ft | 369 kts | 204° |
| 2026-04-26 14:01 | 68.36987 | 15.97566 | 18170 ft | 373 kts | 204° |
| 2026-04-26 14:01 | 68.34544 | 15.95074 | 18728 ft | 376 kts | 204° |
| 2026-04-26 14:01 | 68.32088 | 15.92570 | 19211 ft | 380 kts | 204° |
| 2026-04-26 14:01 | 68.29599 | 15.90037 | 19671 ft | 384 kts | 204° |
| 2026-04-26 14:02 | 68.27080 | 15.87480 | 20133 ft | 388 kts | 204° |
| 2026-04-26 14:02 | 68.24540 | 15.84909 | 20590 ft | 392 kts | 204° |
| 2026-04-26 14:02 | 68.21970 | 15.82313 | 21047 ft | 396 kts | 205° |
| 2026-04-26 14:02 | 68.19376 | 15.79700 | 21496 ft | 400 kts | 205° |
| 2026-04-26 14:03 | 68.16753 | 15.77061 | 21944 ft | 404 kts | 205° |
| 2026-04-26 14:03 | 68.14110 | 15.74411 | 22379 ft | 408 kts | 205° |
| 2026-04-26 14:03 | 68.11438 | 15.71738 | 22785 ft | 412 kts | 205° |
| 2026-04-26 14:03 | 68.08754 | 15.68919 | 23009 ft | 419 kts | 208° |
| 2026-04-26 14:04 | 68.06055 | 15.65822 | 23381 ft | 423 kts | 210° |
| 2026-04-26 14:04 | 68.03364 | 15.62660 | 23839 ft | 424 kts | 210° |
| 2026-04-26 14:04 | 68.00653 | 15.59486 | 24220 ft | 426 kts | 210° |
| 2026-04-26 14:04 | 67.97920 | 15.56321 | 24557 ft | 429 kts | 210° |
| 2026-04-26 14:05 | 67.95170 | 15.53169 | 24885 ft | 433 kts | 210° |
| 2026-04-26 14:05 | 67.92391 | 15.50011 | 25229 ft | 436 kts | 209° |
| 2026-04-26 14:05 | 67.89588 | 15.46844 | 25584 ft | 439 kts | 210° |
| 2026-04-26 14:05 | 67.86776 | 15.43676 | 25925 ft | 441 kts | 210° |
| 2026-04-26 14:06 | 67.83932 | 15.40475 | 26263 ft | 445 kts | 210° |
| 2026-04-26 14:06 | 67.81070 | 15.37264 | 26634 ft | 448 kts | 210° |
| 2026-04-26 14:06 | 67.78237 | 15.33798 | 26866 ft | 447 kts | 218° |
| 2026-04-26 14:06 | 67.75617 | 15.29441 | 27171 ft | 446 kts | 222° |
| 2026-04-26 14:07 | 67.73065 | 15.24780 | 27576 ft | 446 kts | 224° |
| 2026-04-26 14:07 | 67.70534 | 15.20039 | 27967 ft | 447 kts | 224° |
| 2026-04-26 14:07 | 67.67986 | 15.15281 | 28315 ft | 451 kts | 224° |
| 2026-04-26 14:07 | 67.65413 | 15.10539 | 28640 ft | 454 kts | 223° |
| 2026-04-26 14:08 | 67.62806 | 15.05807 | 28945 ft | 457 kts | 223° |
| 2026-04-26 14:08 | 67.60171 | 15.01089 | 29281 ft | 460 kts | 223° |
| 2026-04-26 14:08 | 67.57551 | 14.96444 | 29571 ft | 462 kts | 223° |
| 2026-04-26 14:08 | 67.54852 | 14.91695 | 30021 ft | 462 kts | 223° |
| 2026-04-26 14:09 | 67.52208 | 14.87063 | 30293 ft | 465 kts | 223° |
| 2026-04-26 14:09 | 67.49511 | 14.82348 | 30472 ft | 468 kts | 223° |
| 2026-04-26 14:09 | 67.46799 | 14.77617 | 30698 ft | 471 kts | 223° |
| 2026-04-26 14:09 | 67.44075 | 14.72884 | 31036 ft | 470 kts | 223° |
| 2026-04-26 14:10 | 67.41354 | 14.68173 | 31415 ft | 469 kts | 223° |
| 2026-04-26 14:10 | 67.38637 | 14.63478 | 31723 ft | 469 kts | 222° |
| 2026-04-26 14:10 | 67.35922 | 14.58795 | 32031 ft | 470 kts | 222° |
| 2026-04-26 14:10 | 67.33197 | 14.54105 | 32370 ft | 470 kts | 222° |
| 2026-04-26 14:11 | 67.27750 | 14.44770 | 33018 ft | 470 kts | 221° |
| 2026-04-26 14:11 | 67.25941 | 14.41682 | 33206 ft | 470 kts | 221° |
| 2026-04-26 14:11 | 67.22292 | 14.35467 | 33595 ft | 470 kts | 221° |
| 2026-04-26 14:12 | 67.19561 | 14.30831 | 33885 ft | 470 kts | 220° |
| 2026-04-26 14:12 | 67.17756 | 14.27774 | 34071 ft | 470 kts | 220° |
| 2026-04-26 14:12 | 67.15021 | 14.23152 | 34267 ft | 470 kts | 220° |
| 2026-04-26 14:12 | 67.12281 | 14.18536 | 34499 ft | 470 kts | 220° |
| 2026-04-26 14:13 | 67.06819 | 14.09375 | 35033 ft | 468 kts | 220° |
| 2026-04-26 14:13 | 67.04092 | 14.04819 | 35276 ft | 468 kts | 219° |
| 2026-04-26 14:13 | 67.01368 | 14.00278 | 35494 ft | 468 kts | 219° |
| 2026-04-26 14:14 | 66.98637 | 13.95738 | 35727 ft | 467 kts | 219° |
| 2026-04-26 14:14 | 66.95911 | 13.91219 | 35953 ft | 467 kts | 219° |
| 2026-04-26 14:14 | 66.93185 | 13.86712 | 36077 ft | 468 kts | 219° |
| 2026-04-26 14:15 | 66.87702 | 13.77679 | 36106 ft | 470 kts | 219° |
| 2026-04-26 14:15 | 66.82230 | 13.68726 | 36116 ft | 466 kts | 219° |
| 2026-04-26 14:16 | 66.76791 | 13.59872 | 36129 ft | 463 kts | 219° |
| 2026-04-26 14:16 | 66.71374 | 13.51095 | 36130 ft | 461 kts | 219° |
| 2026-04-26 14:17 | 66.65967 | 13.42379 | 36133 ft | 461 kts | 219° |
| 2026-04-26 14:17 | 66.60551 | 13.33695 | 36127 ft | 460 kts | 220° |
| 2026-04-26 14:18 | 66.55175 | 13.25119 | 36131 ft | 462 kts | 220° |
| 2026-04-26 14:18 | 66.49743 | 13.16500 | 36138 ft | 462 kts | 220° |
| 2026-04-26 14:19 | 66.44301 | 13.07911 | 36160 ft | 463 kts | 219° |
| 2026-04-26 14:19 | 66.38833 | 12.99324 | 36167 ft | 465 kts | 219° |
| 2026-04-26 14:20 | 66.33336 | 12.90740 | 36140 ft | 466 kts | 220° |
| 2026-04-26 14:20 | 66.27841 | 12.82207 | 36156 ft | 466 kts | 220° |
| 2026-04-26 14:21 | 66.22344 | 12.73712 | 36172 ft | 465 kts | 219° |
| 2026-04-26 14:21 | 66.16837 | 12.65244 | 36162 ft | 466 kts | 219° |
| 2026-04-26 14:22 | 66.11335 | 12.56829 | 36171 ft | 465 kts | 219° |
| 2026-04-26 14:22 | 66.05825 | 12.48446 | 36148 ft | 465 kts | 219° |
| 2026-04-26 14:23 | 66.00325 | 12.40125 | 36184 ft | 463 kts | 219° |
| 2026-04-26 14:23 | 65.94839 | 12.31860 | 36185 ft | 463 kts | 219° |
| 2026-04-26 14:24 | 65.89345 | 12.23626 | 36186 ft | 463 kts | 219° |
| 2026-04-26 14:24 | 65.84701 | 12.16699 | 36194 ft | 463 kts | 219° |
| 2026-04-26 14:25 | 65.79203 | 12.08538 | 36197 ft | 463 kts | 219° |
| 2026-04-26 14:25 | 65.73703 | 12.00415 | 36203 ft | 462 kts | 219° |
| 2026-04-26 14:26 | 65.68209 | 11.92341 | 36202 ft | 462 kts | 219° |
| 2026-04-26 14:26 | 65.62743 | 11.84348 | 36207 ft | 462 kts | 219° |
| 2026-04-26 14:27 | 65.57239 | 11.76338 | 36213 ft | 462 kts | 219° |
| 2026-04-26 14:27 | 65.51729 | 11.68361 | 36224 ft | 462 kts | 219° |
| 2026-04-26 14:28 | 65.46176 | 11.60362 | 36200 ft | 461 kts | 219° |
| 2026-04-26 14:28 | 65.40706 | 11.52524 | 36217 ft | 461 kts | 219° |
| 2026-04-26 14:29 | 65.35192 | 11.44659 | 36230 ft | 461 kts | 218° |
| 2026-04-26 14:29 | 65.29676 | 11.36829 | 36231 ft | 462 kts | 218° |
| 2026-04-26 14:30 | 65.24142 | 11.29012 | 36245 ft | 462 kts | 218° |
| 2026-04-26 14:30 | 65.18603 | 11.21228 | 36209 ft | 462 kts | 218° |
| 2026-04-26 14:31 | 65.13063 | 11.13482 | 36239 ft | 462 kts | 218° |
| 2026-04-26 14:31 | 65.07515 | 11.05761 | 36248 ft | 462 kts | 218° |
| 2026-04-26 14:32 | 65.01956 | 10.98062 | 36244 ft | 463 kts | 218° |
| 2026-04-26 14:32 | 64.96388 | 10.90388 | 36243 ft | 463 kts | 218° |
| 2026-04-26 14:33 | 64.90813 | 10.82742 | 36250 ft | 464 kts | 218° |
| 2026-04-26 14:33 | 64.85241 | 10.75139 | 36247 ft | 463 kts | 218° |
| 2026-04-26 14:34 | 64.79654 | 10.67550 | 36245 ft | 464 kts | 217° |
| 2026-04-26 14:34 | 64.74070 | 10.60003 | 36257 ft | 463 kts | 217° |
| 2026-04-26 14:35 | 64.68485 | 10.52490 | 36266 ft | 463 kts | 217° |
| 2026-04-26 14:35 | 64.62899 | 10.45013 | 36268 ft | 463 kts | 217° |
| 2026-04-26 14:36 | 64.57314 | 10.37573 | 36271 ft | 461 kts | 217° |
| 2026-04-26 14:36 | 64.51740 | 10.30182 | 36271 ft | 461 kts | 217° |
| 2026-04-26 14:37 | 64.46172 | 10.22833 | 36285 ft | 460 kts | 217° |
| 2026-04-26 14:37 | 64.40641 | 10.15567 | 36282 ft | 460 kts | 217° |
| 2026-04-26 14:38 | 64.35033 | 10.08235 | 36283 ft | 460 kts | 217° |
| 2026-04-26 14:38 | 64.29499 | 10.01034 | 36283 ft | 460 kts | 217° |
| 2026-04-26 14:39 | 64.23923 | 9.93811 | 36287 ft | 460 kts | 217° |
| 2026-04-26 14:39 | 64.18348 | 9.86624 | 36286 ft | 460 kts | 216° |
| 2026-04-26 14:40 | 64.12763 | 9.79458 | 36301 ft | 460 kts | 216° |
| 2026-04-26 14:40 | 64.07173 | 9.72318 | 36299 ft | 460 kts | 216° |
| 2026-04-26 14:41 | 64.01584 | 9.65212 | 36284 ft | 460 kts | 216° |
| 2026-04-26 14:41 | 63.95995 | 9.58141 | 36297 ft | 459 kts | 216° |
| 2026-04-26 14:42 | 63.90407 | 9.51102 | 36311 ft | 459 kts | 216° |
| 2026-04-26 14:42 | 63.84816 | 9.44092 | 36317 ft | 459 kts | 216° |
| 2026-04-26 14:43 | 63.79221 | 9.37107 | 36309 ft | 459 kts | 216° |
| 2026-04-26 14:43 | 63.73620 | 9.30148 | 36280 ft | 458 kts | 215° |
| 2026-04-26 14:44 | 63.68035 | 9.23243 | 36305 ft | 457 kts | 215° |
| 2026-04-26 14:44 | 63.62463 | 9.16384 | 36308 ft | 456 kts | 215° |
| 2026-04-26 14:45 | 63.56892 | 9.09555 | 36308 ft | 456 kts | 215° |
| 2026-04-26 14:45 | 63.51324 | 9.02760 | 36312 ft | 455 kts | 215° |
| 2026-04-26 14:46 | 63.45759 | 8.96000 | 36285 ft | 455 kts | 214° |
| 2026-04-26 14:46 | 63.40207 | 8.89285 | 36306 ft | 454 kts | 214° |
| 2026-04-26 14:47 | 63.34653 | 8.82598 | 36321 ft | 453 kts | 214° |
| 2026-04-26 14:47 | 63.29094 | 8.75934 | 36319 ft | 453 kts | 214° |
| 2026-04-26 14:48 | 63.23540 | 8.69305 | 36325 ft | 453 kts | 214° |
| 2026-04-26 14:48 | 63.17980 | 8.62700 | 36318 ft | 453 kts | 214° |
| 2026-04-26 14:49 | 63.12429 | 8.56134 | 36320 ft | 452 kts | 213° |
| 2026-04-26 14:49 | 63.06911 | 8.49634 | 36319 ft | 452 kts | 213° |
| 2026-04-26 14:50 | 63.01353 | 8.43116 | 36322 ft | 453 kts | 213° |
| 2026-04-26 14:50 | 62.95779 | 8.36608 | 36319 ft | 453 kts | 213° |
| 2026-04-26 14:51 | 62.90212 | 8.30136 | 36329 ft | 453 kts | 213° |
| 2026-04-26 14:51 | 62.84638 | 8.23684 | 36317 ft | 453 kts | 213° |
| 2026-04-26 14:52 | 62.79069 | 8.17266 | 36334 ft | 452 kts | 212° |
| 2026-04-26 14:52 | 62.73508 | 8.10884 | 36327 ft | 452 kts | 212° |
| 2026-04-26 14:53 | 62.67945 | 8.04528 | 36326 ft | 451 kts | 212° |
| 2026-04-26 14:53 | 62.62383 | 7.98199 | 36317 ft | 450 kts | 212° |
| 2026-04-26 14:54 | 62.56838 | 7.91917 | 36320 ft | 449 kts | 212° |
| 2026-04-26 14:54 | 62.51301 | 7.85670 | 36315 ft | 449 kts | 212° |
| 2026-04-26 14:55 | 62.45768 | 7.79454 | 36326 ft | 447 kts | 212° |
| 2026-04-26 14:55 | 62.40249 | 7.73280 | 36330 ft | 447 kts | 212° |
| 2026-04-26 14:56 | 62.34724 | 7.67123 | 36323 ft | 447 kts | 212° |
| 2026-04-26 14:56 | 62.29190 | 7.60984 | 36318 ft | 447 kts | 212° |
| 2026-04-26 14:57 | 62.23660 | 7.54874 | 36338 ft | 447 kts | 212° |
| 2026-04-26 14:57 | 62.18126 | 7.48784 | 36329 ft | 447 kts | 211° |
| 2026-04-26 14:58 | 62.12581 | 7.42709 | 36328 ft | 448 kts | 211° |
| 2026-04-26 14:58 | 62.07032 | 7.36654 | 36327 ft | 447 kts | 211° |
| 2026-04-26 14:59 | 62.02473 | 7.31705 | 36285 ft | 435 kts | 211° |
| 2026-04-26 14:59 | 61.99823 | 7.28842 | 36302 ft | 419 kts | 211° |
| 2026-04-26 14:59 | 61.97266 | 7.26085 | 36307 ft | 407 kts | 211° |
| 2026-04-26 15:00 | 61.92249 | 7.20666 | 36326 ft | 405 kts | 211° |
| 2026-04-26 15:00 | 61.87225 | 7.15249 | 36330 ft | 406 kts | 211° |
| 2026-04-26 15:01 | 61.82184 | 7.09845 | 36175 ft | 402 kts | 211° |
| 2026-04-26 15:01 | 61.79692 | 7.07186 | 35668 ft | 402 kts | 211° |
| 2026-04-26 15:01 | 61.77161 | 7.04481 | 34767 ft | 415 kts | 210° |
| 2026-04-26 15:01 | 61.74553 | 7.01698 | 34009 ft | 422 kts | 210° |
| 2026-04-26 15:02 | 61.71935 | 6.98918 | 33560 ft | 419 kts | 210° |
| 2026-04-26 15:02 | 61.69352 | 6.96186 | 33271 ft | 412 kts | 210° |
| 2026-04-26 15:02 | 61.66798 | 6.93490 | 32911 ft | 408 kts | 210° |
| 2026-04-26 15:02 | 61.64266 | 6.90820 | 32468 ft | 407 kts | 211° |
| 2026-04-26 15:03 | 61.61743 | 6.88160 | 32055 ft | 405 kts | 211° |
| 2026-04-26 15:03 | 61.59232 | 6.85518 | 31653 ft | 402 kts | 211° |
| 2026-04-26 15:03 | 61.56744 | 6.82904 | 31280 ft | 399 kts | 211° |
| 2026-04-26 15:03 | 61.54267 | 6.80307 | 30905 ft | 397 kts | 211° |
| 2026-04-26 15:04 | 61.51803 | 6.77728 | 30511 ft | 395 kts | 211° |
| 2026-04-26 15:04 | 61.49357 | 6.75173 | 30093 ft | 392 kts | 211° |
| 2026-04-26 15:04 | 61.46921 | 6.72632 | 29627 ft | 390 kts | 211° |
| 2026-04-26 15:04 | 61.44500 | 6.70112 | 29159 ft | 387 kts | 211° |
| 2026-04-26 15:05 | 61.42103 | 6.67621 | 28775 ft | 384 kts | 211° |
| 2026-04-26 15:05 | 61.40522 | 6.65980 | 28506 ft | 382 kts | 211° |
| 2026-04-26 15:05 | 61.37353 | 6.62697 | 27945 ft | 379 kts | 211° |
| 2026-04-26 15:05 | 61.34996 | 6.60260 | 27522 ft | 377 kts | 211° |
| 2026-04-26 15:06 | 61.32657 | 6.57846 | 27133 ft | 375 kts | 211° |
| 2026-04-26 15:06 | 61.30330 | 6.55447 | 26759 ft | 373 kts | 211° |
| 2026-04-26 15:06 | 61.28012 | 6.53062 | 26355 ft | 370 kts | 211° |
| 2026-04-26 15:06 | 61.25711 | 6.50698 | 25978 ft | 368 kts | 212° |
| 2026-04-26 15:07 | 61.21151 | 6.46026 | 25223 ft | 364 kts | 212° |
| 2026-04-26 15:07 | 61.18886 | 6.43710 | 24851 ft | 362 kts | 212° |
| 2026-04-26 15:07 | 61.16667 | 6.41445 | 24491 ft | 359 kts | 211° |
| 2026-04-26 15:08 | 61.14434 | 6.39171 | 24176 ft | 357 kts | 211° |
| 2026-04-26 15:08 | 61.12183 | 6.36880 | 23833 ft | 355 kts | 212° |
| 2026-04-26 15:08 | 61.09996 | 6.34658 | 23425 ft | 354 kts | 212° |
| 2026-04-26 15:08 | 61.07792 | 6.32422 | 23020 ft | 352 kts | 212° |
| 2026-04-26 15:09 | 61.05603 | 6.30204 | 22590 ft | 350 kts | 211° |
| 2026-04-26 15:09 | 61.03418 | 6.27995 | 22227 ft | 348 kts | 212° |
| 2026-04-26 15:09 | 61.01249 | 6.25805 | 21898 ft | 346 kts | 212° |
| 2026-04-26 15:09 | 60.99087 | 6.23626 | 21533 ft | 345 kts | 212° |
| 2026-04-26 15:10 | 60.96910 | 6.21435 | 21148 ft | 343 kts | 212° |
| 2026-04-26 15:10 | 60.95488 | 6.20004 | 20889 ft | 342 kts | 212° |
| 2026-04-26 15:10 | 60.92662 | 6.17167 | 20402 ft | 341 kts | 212° |
| 2026-04-26 15:10 | 60.90535 | 6.15033 | 20039 ft | 339 kts | 212° |
| 2026-04-26 15:11 | 60.88418 | 6.12914 | 19707 ft | 336 kts | 211° |
| 2026-04-26 15:11 | 60.86323 | 6.10823 | 19424 ft | 334 kts | 211° |
| 2026-04-26 15:11 | 60.84241 | 6.08754 | 19084 ft | 333 kts | 210° |
| 2026-04-26 15:11 | 60.82060 | 6.07065 | 18736 ft | 337 kts | 201° |
| 2026-04-26 15:12 | 60.79795 | 6.05810 | 18387 ft | 336 kts | 199° |
| 2026-04-26 15:12 | 60.77536 | 6.04628 | 18035 ft | 335 kts | 200° |
| 2026-04-26 15:12 | 60.75299 | 6.03401 | 17660 ft | 330 kts | 200° |
| 2026-04-26 15:12 | 60.73098 | 6.02146 | 17115 ft | 328 kts | 201° |
| 2026-04-26 15:13 | 60.70903 | 6.00874 | 16578 ft | 327 kts | 200° |
| 2026-04-26 15:13 | 60.68719 | 5.99603 | 16114 ft | 325 kts | 200° |
| 2026-04-26 15:13 | 60.66550 | 5.98342 | 15656 ft | 322 kts | 200° |
| 2026-04-26 15:13 | 60.64405 | 5.97095 | 15170 ft | 320 kts | 200° |
| 2026-04-26 15:14 | 60.62265 | 5.95851 | 14697 ft | 319 kts | 200° |
| 2026-04-26 15:14 | 60.60140 | 5.94620 | 14243 ft | 317 kts | 199° |
| 2026-04-26 15:14 | 60.58026 | 5.93397 | 13784 ft | 314 kts | 199° |
| 2026-04-26 15:14 | 60.55938 | 5.92191 | 13264 ft | 311 kts | 199° |
| 2026-04-26 15:15 | 60.53861 | 5.90992 | 12865 ft | 307 kts | 199° |
| 2026-04-26 15:15 | 60.51829 | 5.89820 | 12537 ft | 301 kts | 199° |
| 2026-04-26 15:15 | 60.49840 | 5.88676 | 12221 ft | 294 kts | 199° |
| 2026-04-26 15:15 | 60.47890 | 5.87555 | 11915 ft | 288 kts | 199° |
| 2026-04-26 15:16 | 60.45981 | 5.86458 | 11636 ft | 284 kts | 199° |
| 2026-04-26 15:16 | 60.44084 | 5.85369 | 11350 ft | 284 kts | 200° |
| 2026-04-26 15:16 | 60.42169 | 5.84269 | 11094 ft | 290 kts | 199° |
| 2026-04-26 15:16 | 60.40194 | 5.83136 | 10794 ft | 298 kts | 199° |
| 2026-04-26 15:17 | 60.38194 | 5.81995 | 10500 ft | 297 kts | 199° |
| 2026-04-26 15:17 | 60.36897 | 5.81258 | 10408 ft | 288 kts | 199° |
| 2026-04-26 15:17 | 60.34342 | 5.79804 | 10151 ft | 283 kts | 200° |
| 2026-04-26 15:17 | 60.32602 | 5.78073 | 9809 ft | 277 kts | 221° |
| 2026-04-26 15:18 | 60.31107 | 5.75652 | 9528 ft | 275 kts | 224° |
| 2026-04-26 15:18 | 60.29637 | 5.73211 | 9201 ft | 274 kts | 223° |
| 2026-04-26 15:18 | 60.28158 | 5.70784 | 8926 ft | 274 kts | 223° |
| 2026-04-26 15:18 | 60.26677 | 5.68396 | 8604 ft | 273 kts | 222° |
| 2026-04-26 15:19 | 60.25209 | 5.66056 | 8342 ft | 272 kts | 222° |
| 2026-04-26 15:19 | 60.23725 | 5.63712 | 8086 ft | 270 kts | 221° |
| 2026-04-26 15:19 | 60.22247 | 5.61393 | 7814 ft | 269 kts | 221° |
| 2026-04-26 15:19 | 60.20768 | 5.59082 | 7532 ft | 268 kts | 221° |
| 2026-04-26 15:20 | 60.19294 | 5.56786 | 7243 ft | 268 kts | 221° |
| 2026-04-26 15:20 | 60.17826 | 5.54504 | 6972 ft | 266 kts | 221° |
| 2026-04-26 15:20 | 60.16361 | 5.52229 | 6693 ft | 266 kts | 221° |
| 2026-04-26 15:20 | 60.14902 | 5.49968 | 6407 ft | 264 kts | 220° |
| 2026-04-26 15:21 | 60.13455 | 5.47733 | 6209 ft | 260 kts | 220° |
| 2026-04-26 15:21 | 60.12045 | 5.45558 | 6096 ft | 252 kts | 220° |
| 2026-04-26 15:21 | 60.10708 | 5.43389 | 5960 ft | 243 kts | 230° |
| 2026-04-26 15:21 | 60.09960 | 5.40516 | 5805 ft | 229 kts | 263° |
| 2026-04-26 15:22 | 60.09929 | 5.37412 | 5697 ft | 219 kts | 280° |
| 2026-04-26 15:22 | 60.10185 | 5.34451 | 5535 ft | 214 kts | 283° |
| 2026-04-26 15:22 | 60.10473 | 5.31537 | 5282 ft | 213 kts | 284° |
| 2026-04-26 15:22 | 60.10985 | 5.28851 | 5134 ft | 203 kts | 311° |
| 2026-04-26 15:23 | 60.12178 | 5.27483 | 4798 ft | 204 kts | 349° |
| 2026-04-26 15:23 | 60.13601 | 5.27045 | 4429 ft | 209 kts | 350° |
| 2026-04-26 15:23 | 60.15042 | 5.26564 | 3825 ft | 219 kts | 350° |
| 2026-04-26 15:23 | 60.16512 | 5.25528 | 3212 ft | 223 kts | 321° |
| 2026-04-26 15:24 | 60.17236 | 5.23035 | 3259 ft | 198 kts | 281° |
| 2026-04-26 15:24 | 60.16998 | 5.20405 | 2908 ft | 199 kts | 244° |
| 2026-04-26 15:24 | 60.15963 | 5.18695 | 2637 ft | 188 kts | 192° |
| 2026-04-26 15:24 | 60.14803 | 5.19265 | 2440 ft | 173 kts | 130° |
| 2026-04-26 15:25 | 60.14437 | 5.21389 | 2355 ft | 160 kts | 81° |
| 2026-04-26 15:25 | 60.14597 | 5.22798 | 2325 ft | 154 kts | 62° |
| 2026-04-26 15:25 | 60.15390 | 5.25054 | 2277 ft | 146 kts | 34° |
| 2026-04-26 15:25 | 60.16297 | 5.25668 | 2309 ft | 135 kts | 359° |
| 2026-04-26 15:26 | 60.17248 | 5.25600 | 2289 ft | 142 kts | 355° |
| 2026-04-26 15:26 | 60.18254 | 5.25466 | 2166 ft | 142 kts | 353° |
| 2026-04-26 15:26 | 60.19220 | 5.25203 | 2054 ft | 140 kts | 349° |
| 2026-04-26 15:26 | 60.20192 | 5.24850 | 1888 ft | 143 kts | 349° |
| 2026-04-26 15:27 | 60.21176 | 5.24529 | 1721 ft | 145 kts | 349° |
| 2026-04-26 15:27 | 60.22176 | 5.24197 | 1467 ft | 148 kts | 349° |
| 2026-04-26 15:27 | 60.23199 | 5.23879 | 1270 ft | 147 kts | 350° |
| 2026-04-26 15:27 | 60.24179 | 5.23573 | 973 ft | 140 kts | 348° |
| 2026-04-26 15:28 | 60.25124 | 5.23251 | 794 ft | 140 kts | 347° |
| 2026-04-26 15:28 | 60.26088 | 5.22906 | 643 ft | 143 kts | 347° |
| 2026-04-26 15:28 | 60.27083 | 5.22574 | 439 ft | 144 kts | 347° |
| 2026-04-26 15:28 | 60.28071 | 5.22252 | 225 ft | 144 kts | 347° |
| 2026-04-26 15:29 | 60.29004 | 5.21934 | 160 ft | 115 kts | 351° |
| 2026-04-26 15:29 | 60.29537 | 5.21750 | 147 ft | 37 kts | 350° |
| 2026-04-26 15:29 | 60.29713 | 5.22100 | 147 ft | 18 kts | 116° |
| 2026-04-26 15:30 | 60.29486 | 5.22210 | 156 ft | 16 kts | 172° |
| 2026-04-26 15:30 | 60.29448 | 5.22222 | 157 ft | 16 kts | 170° |